Time;durP1;ratioP1;P1;durP2;ratioP2;P2;SDS_P1;SDS_P2;PMS_P1;PMS_P2;Temp;Humidity;BMP_temperature;BMP_pressure;BME280_temperature;BME280_humidity;BME280_pressure;Samples;Min_cycle;Max_cycle;Signal;HPM_P1;HPM_P2
2023/05/27 00:01:49;;;;;;;35.78;29.13;;;9.50;99.90;;;;;;5029319;28;20107;-61
2023/05/27 00:04:14;;;;;;;34.67;28.77;;;9.50;99.90;;;;;;5028108;28;20037;-61
2023/05/27 00:06:40;;;;;;;34.40;29.40;;;9.30;99.90;;;;;;5029065;28;20037;-61
2023/05/27 00:09:05;;;;;;;34.33;29.58;;;9.30;99.90;;;;;;5029424;28;20076;-61
2023/05/27 00:11:31;;;;;;;31.88;28.58;;;9.20;99.90;;;;;;5029348;28;20442;-61
2023/05/27 00:13:57;;;;;;;32.88;29.50;;;9.20;99.90;;;;;;5028476;28;20063;-61
2023/05/27 00:16:23;;;;;;;31.95;28.50;;;9.00;99.90;;;;;;5029533;28;20037;-61
2023/05/27 00:18:48;;;;;;;36.28;30.17;;;9.00;99.90;;;;;;5029403;28;20129;-61
2023/05/27 00:21:14;;;;;;;35.08;28.98;;;9.00;99.90;;;;;;5029447;28;20606;-61
2023/05/27 00:23:46;;;;;;;36.22;28.73;;;8.90;99.90;;;;;;5029172;28;20033;-61
2023/05/27 00:26:11;;;;;;;34.65;28.13;;;9.00;1.00;;;;;;5031720;28;20033;-61
2023/05/27 00:28:37;;;;;;;32.45;28.85;;;9.00;1.00;;;;;;5033131;28;20041;-61
2023/05/27 00:31:03;;;;;;;31.85;26.10;;;9.00;1.00;;;;;;5033256;28;20495;-61
2023/05/27 00:33:28;;;;;;;31.45;27.15;;;8.90;48.90;;;;;;5032757;28;20049;-61
2023/05/27 00:35:54;;;;;;;37.47;28.23;;;8.90;87.20;;;;;;5032562;28;20045;-61
2023/05/27 00:38:19;;;;;;;35.75;28.30;;;8.90;99.90;;;;;;5032956;28;20526;-61
2023/05/27 00:40:46;;;;;;;32.80;28.35;;;9.00;99.90;;;;;;5032974;28;20403;-61
2023/05/27 00:43:11;;;;;;;32.10;28.60;;;8.90;99.90;;;;;;5032289;28;20041;-61
2023/05/27 00:45:37;;;;;;;37.08;28.85;;;8.90;99.90;;;;;;5032655;28;20041;-61
2023/05/27 00:48:04;;;;;;;30.35;26.83;;;8.80;99.90;;;;;;5032396;28;20056;-61
2023/05/27 00:50:30;;;;;;;35.13;26.13;;;8.90;1.00;;;;;;5032727;28;20179;-61
2023/05/27 00:52:55;;;;;;;29.55;26.48;;;8.80;1.00;;;;;;5032357;28;20103;-61
2023/05/27 00:55:25;;;;;;;34.42;27.27;;;8.80;1.00;;;;;;5032911;28;20124;-61
2023/05/27 00:57:53;;;;;;;37.55;28.13;;;8.80;1.00;;;;;;5032391;28;20044;-61
2023/05/27 01:00:19;;;;;;;35.72;27.25;;;8.80;58.10;;;;;;5032509;28;20491;-61
2023/05/27 01:02:45;;;;;;;35.42;27.85;;;8.90;99.90;;;;;;5032795;28;20049;-61
2023/05/27 01:05:12;;;;;;;33.05;25.48;;;8.90;99.90;;;;;;5032647;28;20179;-61
2023/05/27 01:07:47;;;;;;;30.65;25.63;;;9.40;99.90;;;;;;5029866;28;20080;-61
2023/05/27 01:10:50;;;;;;;32.13;26.02;;;8.80;99.90;;;;;;5032410;28;20045;-61
2023/05/27 01:13:40;;;;;;;34.58;26.80;;;8.80;99.90;;;;;;5032386;28;20068;-62
2023/05/27 01:16:11;;;;;;;35.83;27.50;;;8.80;99.90;;;;;;5030984;28;20136;-59
2023/05/27 01:18:40;;;;;;;33.88;27.42;;;8.60;1.00;;;;;;5032104;28;20459;-58
2023/05/27 01:21:09;;;;;;;37.15;26.27;;;8.70;1.00;;;;;;5031889;28;20096;-59
2023/05/27 01:23:38;;;;;;;35.20;27.52;;;8.80;1.00;;;;;;5032389;28;20065;-58
2023/05/27 01:26:04;;;;;;;32.35;28.85;;;8.80;83.10;;;;;;5032361;28;20042;-58
2023/05/27 01:28:30;;;;;;;30.63;27.45;;;8.70;99.90;;;;;;5031654;28;20048;-59
2023/05/27 01:31:21;;;;;;;33.47;28.42;;;8.80;99.90;;;;;;5031899;28;20442;-59
2023/05/27 01:33:55;;;;;;;41.22;28.25;;;8.80;99.90;;;;;;5032181;28;20117;-59
2023/05/27 01:36:24;;;;;;;38.25;27.95;;;8.70;1.00;;;;;;5032171;28;20045;-58
2023/05/27 01:38:52;;;;;;;34.47;26.75;;;8.80;1.00;;;;;;5032338;28;20038;-59
2023/05/27 01:41:19;;;;;;;35.65;28.13;;;8.90;99.90;;;;;;5031962;28;20041;-58
2023/05/27 01:43:45;;;;;;;37.38;27.70;;;8.90;99.90;;;;;;5031242;28;20558;-59
2023/05/27 01:46:10;;;;;;;39.15;27.75;;;9.00;99.90;;;;;;5031349;28;20085;-58
2023/05/27 01:48:36;;;;;;;36.78;27.30;;;9.00;1.00;;;;;;5022528;28;20498;-59
2023/05/27 01:51:02;;;;;;;35.22;27.17;;;9.10;1.00;;;;;;5030348;28;20056;-58
2023/05/27 01:53:27;;;;;;;39.08;26.88;;;9.20;1.00;;;;;;5030919;28;20058;-59
2023/05/27 01:55:53;;;;;;;35.63;26.90;;;9.10;70.70;;;;;;5031715;28;20041;-58
2023/05/27 01:58:18;;;;;;;36.97;26.10;;;9.10;99.90;;;;;;5031286;28;20369;-59
2023/05/27 02:00:44;;;;;;;30.45;26.25;;;9.20;99.90;;;;;;5031400;28;20053;-59
2023/05/27 02:03:09;;;;;;;30.65;27.35;;;9.10;99.90;;;;;;5046335;28;20057;-59
2023/05/27 02:05:35;;;;;;;33.78;26.92;;;9.10;99.90;;;;;;5029704;28;20030;-58
2023/05/27 02:08:01;;;;;;;29.17;26.00;;;9.10;99.90;;;;;;5031140;28;20118;-59
2023/05/27 02:10:28;;;;;;;29.70;25.73;;;9.00;99.90;;;;;;5031259;28;20034;-59
2023/05/27 02:12:53;;;;;;;33.83;26.23;;;8.90;99.90;;;;;;5030955;28;20056;-59
2023/05/27 02:15:23;;;;;;;28.70;26.05;;;8.70;99.90;;;;;;5030863;28;20041;-58
2023/05/27 02:17:54;;;;;;;32.35;26.33;;;8.80;99.90;;;;;;5031062;28;20180;-58
2023/05/27 02:20:23;;;;;;;29.85;26.50;;;8.70;99.90;;;;;;5030956;28;20048;-59
2023/05/27 02:22:52;;;;;;;35.70;26.70;;;8.60;99.90;;;;;;5031033;28;20478;-61
2023/05/27 02:25:17;;;;;;;31.88;26.85;;;8.60;99.90;;;;;;5030782;28;20033;-58
2023/05/27 02:27:47;;;;;;;28.90;25.75;;;8.60;1.00;;;;;;5030938;28;20116;-59
2023/05/27 02:30:13;;;;;;;34.17;26.20;;;8.50;1.00;;;;;;5030926;28;20040;-58
2023/05/27 02:32:39;;;;;;;31.95;26.63;;;8.60;1.00;;;;;;5030925;28;20038;-59
2023/05/27 02:35:05;;;;;;;32.38;26.25;;;8.40;15.40;;;;;;5030569;28;20038;-59
2023/05/27 02:37:30;;;;;;;30.70;25.52;;;8.40;99.80;;;;;;5030841;28;20047;-58
2023/05/27 02:39:56;;;;;;;31.98;26.17;;;8.40;99.90;;;;;;5029297;28;20124;-58
2023/05/27 02:42:21;;;;;;;31.27;26.38;;;8.40;99.90;;;;;;5030629;28;20038;-58
2023/05/27 02:44:47;;;;;;;29.58;25.65;;;8.40;99.90;;;;;;5030311;28;20045;-59
2023/05/27 02:47:12;;;;;;;34.72;25.55;;;7.10;99.90;;;;;;5030174;28;20049;-59
2023/05/27 02:49:38;;;;;;;38.72;25.10;;;8.50;1.00;;;;;;5043861;28;20100;-58
2023/05/27 02:52:04;;;;;;;33.58;25.73;;;8.30;1.00;;;;;;5028812;28;20036;-59
2023/05/27 02:54:29;;;;;;;30.83;25.40;;;8.50;1.00;;;;;;5030655;28;20064;-59
2023/05/27 02:56:55;;;;;;;36.63;26.88;;;8.50;99.90;;;;;;5030735;28;20045;-59
2023/05/27 02:59:20;;;;;;;45.22;26.23;;;8.40;99.90;;;;;;5029353;28;20053;-59
2023/05/27 03:01:46;;;;;;;34.75;26.77;;;8.60;99.90;;;;;;5030570;28;20125;-59
2023/05/27 03:04:12;;;;;;;35.85;25.75;;;8.50;1.00;;;;;;5027238;28;20042;-59
2023/05/27 03:06:37;;;;;;;32.65;25.58;;;8.50;1.00;;;;;;5030475;28;20059;-59
2023/05/27 03:09:04;;;;;;;30.05;25.60;;;8.50;99.90;;;;;;5029581;28;20091;-59
2023/05/27 03:11:29;;;;;;;30.88;24.80;;;8.70;99.90;;;;;;5028335;28;20045;-59
2023/05/27 03:13:55;;;;;;;37.08;26.60;;;8.70;1.00;;;;;;5029697;28;20668;-58
2023/05/27 03:16:22;;;;;;;38.28;24.80;;;8.60;1.00;;;;;;5029778;28;20586;-58
2023/05/27 03:18:48;;;;;;;44.47;27.25;;;8.70;40.70;;;;;;5028631;28;20075;-59
2023/05/27 03:21:14;;;;;;;37.88;26.58;;;8.70;89.50;;;;;;5029458;28;20037;-58
2023/05/27 03:23:39;;;;;;;35.83;26.80;;;8.80;33.70;;;;;;5029816;28;20045;-58
2023/05/27 03:26:05;;;;;;;35.33;27.42;;;8.80;99.90;;;;;;5044769;28;20069;-58
2023/05/27 03:28:31;;;;;;;36.15;27.15;;;8.80;99.90;;;;;;5029433;28;20037;-59
2023/05/27 03:30:56;;;;;;;33.60;28.67;;;8.80;99.90;;;;;;5029803;28;20045;-59
2023/05/27 03:33:25;;;;;;;34.25;26.67;;;8.80;99.90;;;;;;5008386;28;20042;-59
2023/05/27 03:35:51;;;;;;;38.20;27.30;;;8.80;99.90;;;;;;5028198;28;20491;-59
2023/05/27 03:38:16;;;;;;;32.03;26.65;;;8.80;99.90;;;;;;5029467;28;20076;-58
2023/05/27 03:40:42;;;;;;;33.72;27.15;;;8.80;99.90;;;;;;5029543;28;20112;-59
2023/05/27 03:43:07;;;;;;;29.98;24.85;;;8.70;99.90;;;;;;5029540;28;20039;-59
2023/05/27 03:45:33;;;;;;;39.42;28.70;;;8.60;99.90;;;;;;5029031;28;20037;-59
2023/05/27 03:47:59;;;;;;;33.38;27.55;;;8.60;99.90;;;;;;5027722;28;20041;-59
2023/05/27 03:50:24;;;;;;;30.83;26.15;;;8.50;99.90;;;;;;5028587;28;20414;-58
2023/05/27 03:52:50;;;;;;;27.48;24.63;;;8.40;99.90;;;;;;5029410;28;20049;-59
2023/05/27 03:55:20;;;;;;;33.00;25.50;;;8.40;99.90;;;;;;5029056;28;20041;-59
2023/05/27 03:57:46;;;;;;;29.83;26.13;;;8.50;99.90;;;;;;5028938;28;20726;-59
2023/05/27 04:00:13;;;;;;;29.75;26.58;;;8.50;99.90;;;;;;5027924;28;20041;-59
2023/05/27 04:02:39;;;;;;;32.63;26.27;;;8.50;99.90;;;;;;5016792;28;20045;-59
2023/05/27 04:05:05;;;;;;;34.72;26.63;;;8.50;99.90;;;;;;5029034;28;20110;-59
2023/05/27 04:07:31;;;;;;;31.67;27.33;;;8.70;99.90;;;;;;5027218;28;20037;-59
2023/05/27 04:09:57;;;;;;;32.47;27.27;;;8.70;99.90;;;;;;5028099;28;20049;-59
2023/05/27 04:12:23;;;;;;;35.05;27.48;;;8.70;99.90;;;;;;5027679;28;20045;-59
2023/05/27 04:14:48;;;;;;;32.15;26.35;;;8.90;99.90;;;;;;5028902;28;20546;-59
2023/05/27 04:17:14;;;;;;;36.70;26.90;;;8.80;99.90;;;;;;5029261;28;20045;-59
2023/05/27 04:19:40;;;;;;;35.20;26.55;;;8.80;99.90;;;;;;5028202;28;20045;-59
2023/05/27 04:22:05;;;;;;;31.08;27.77;;;9.00;99.90;;;;;;5028635;28;20518;-59
2023/05/27 04:24:31;;;;;;;29.05;25.45;;;9.00;99.90;;;;;;5029090;28;20060;-59
2023/05/27 04:26:56;;;;;;;30.75;26.45;;;8.90;99.90;;;;;;5027864;28;20037;-59
2023/05/27 04:29:22;;;;;;;34.30;26.60;;;9.00;99.90;;;;;;5029059;28;20044;-59
2023/05/27 04:31:48;;;;;;;33.65;26.58;;;9.20;99.90;;;;;;5019424;28;20143;-59
2023/05/27 04:34:14;;;;;;;30.20;25.80;;;9.00;99.90;;;;;;5025269;28;20042;-59
2023/05/27 04:36:40;;;;;;;35.40;27.48;;;9.10;99.90;;;;;;5019749;28;20045;-59
2023/05/27 04:39:05;;;;;;;29.77;25.45;;;9.30;99.90;;;;;;5022007;28;20124;-59
2023/05/27 04:41:32;;;;;;;30.20;26.10;;;9.30;99.90;;;;;;5027293;28;20482;-59
2023/05/27 04:44:00;;;;;;;37.40;27.10;;;9.50;99.90;;;;;;5026388;28;20047;-59
2023/05/27 04:46:26;;;;;;;33.65;26.27;;;9.50;99.90;;;;;;5021070;28;20053;-59
2023/05/27 04:48:53;;;;;;;30.33;27.08;;;9.70;99.90;;;;;;5010958;28;20080;-59
2023/05/27 04:51:18;;;;;;;30.60;26.70;;;9.60;99.90;;;;;;5028866;28;20388;-59
2023/05/27 04:53:47;;;;;;;36.33;26.52;;;9.70;99.90;;;;;;5028877;28;20071;-59
2023/05/27 04:56:14;;;;;;;33.10;27.63;;;10.00;99.90;;;;;;5028663;28;20045;-59
2023/05/27 04:58:42;;;;;;;34.80;25.30;;;9.90;99.90;;;;;;5028807;28;20037;-59
2023/05/27 05:01:16;;;;;;;35.55;26.98;;;10.00;99.90;;;;;;5027475;28;20060;-59
2023/05/27 05:06:29;;;;;;;32.88;25.38;;;10.30;99.90;;;;;;5028229;28;20124;-59
2023/05/27 05:08:55;;;;;;;32.92;26.40;;;10.30;99.90;;;;;;5026200;28;20539;-59
2023/05/27 05:11:21;;;;;;;33.85;26.55;;;10.40;99.90;;;;;;5023398;28;20046;-60
2023/05/27 05:13:46;;;;;;;35.20;26.83;;;10.40;99.90;;;;;;5026556;28;20403;-59
2023/05/27 05:16:12;;;;;;;37.97;27.38;;;10.60;99.90;;;;;;5030298;28;20052;-60
2023/05/27 05:18:38;;;;;;;30.17;26.70;;;10.50;99.90;;;;;;5030168;28;20045;-59
2023/05/27 05:21:03;;;;;;;34.00;26.17;;;10.60;99.90;;;;;;5030694;28;20037;-59
2023/05/27 05:23:30;;;;;;;40.95;28.77;;;10.50;99.90;;;;;;5030474;28;20037;-60
2023/05/27 05:25:58;;;;;;;36.05;26.40;;;10.70;99.90;;;;;;5028565;28;20502;-60
2023/05/27 05:28:24;;;;;;;35.60;29.17;;;10.60;99.90;;;;;;5027742;28;20052;-60
2023/05/27 05:30:50;;;;;;;31.55;27.27;;;10.80;99.90;;;;;;5030252;28;20108;-59
2023/05/27 05:33:15;;;;;;;33.08;27.23;;;10.70;99.90;;;;;;5026989;28;20116;-60
2023/05/27 05:35:41;;;;;;;37.75;28.27;;;10.90;99.90;;;;;;5028581;28;20049;-60
2023/05/27 05:38:07;;;;;;;38.03;27.30;;;11.30;99.90;;;;;;5027977;28;20040;-60
2023/05/27 05:40:32;;;;;;;39.70;28.42;;;11.00;99.90;;;;;;5026830;28;20048;-60
2023/05/27 05:42:58;;;;;;;37.83;27.40;;;11.10;99.90;;;;;;5030731;28;20044;-59
2023/05/27 05:45:25;;;;;;;39.80;27.95;;;10.90;99.90;;;;;;5024927;28;20468;-59
2023/05/27 05:47:50;;;;;;;32.53;28.98;;;11.10;99.90;;;;;;5024852;28;20056;-60
2023/05/27 05:50:16;;;;;;;36.40;28.70;;;11.10;99.90;;;;;;5028577;28;20060;-60
2023/05/27 05:52:42;;;;;;;37.20;27.45;;;11.30;99.90;;;;;;5029089;28;20041;-60
2023/05/27 05:55:07;;;;;;;33.03;27.63;;;11.50;99.90;;;;;;5029245;28;20052;-60
2023/05/27 05:57:33;;;;;;;34.50;28.58;;;11.20;99.90;;;;;;5030098;28;20127;-60
2023/05/27 05:59:58;;;;;;;40.80;29.33;;;11.20;99.90;;;;;;5030661;28;20506;-60
2023/05/27 06:02:25;;;;;;;31.92;25.88;;;11.20;99.90;;;;;;5027248;28;20192;-60
2023/05/27 06:04:51;;;;;;;37.35;26.60;;;11.30;99.90;;;;;;5025527;28;20123;-59
2023/05/27 06:07:16;;;;;;;36.35;28.17;;;11.60;99.90;;;;;;5030582;28;20223;-60
2023/05/27 06:09:42;;;;;;;40.40;27.92;;;11.40;99.90;;;;;;5029543;28;20049;-60
2023/05/27 06:12:07;;;;;;;35.20;29.05;;;11.60;99.90;;;;;;5030593;28;20052;-60
2023/05/27 06:14:33;;;;;;;34.17;28.40;;;11.50;99.90;;;;;;5029704;28;20037;-60
2023/05/27 06:16:59;;;;;;;37.08;29.17;;;11.60;99.90;;;;;;5022897;28;20499;-60
2023/05/27 06:19:24;;;;;;;36.58;29.45;;;11.60;99.90;;;;;;5029629;28;20037;-60
2023/05/27 06:21:50;;;;;;;36.00;29.38;;;11.70;99.90;;;;;;5028186;28;20046;-60
2023/05/27 06:24:16;;;;;;;35.90;29.08;;;11.70;85.80;;;;;;5026401;28;20041;-60
2023/05/27 06:26:42;;;;;;;35.08;28.50;;;11.80;1.00;;;;;;5029956;28;20117;-60
2023/05/27 06:29:07;;;;;;;35.03;28.15;;;11.90;1.00;;;;;;5030390;28;20065;-60
2023/05/27 06:31:33;;;;;;;38.38;29.83;;;11.90;99.90;;;;;;5029077;28;20418;-60
2023/05/27 06:33:59;;;;;;;34.22;28.27;;;11.90;1.00;;;;;;5028878;28;20249;-60
2023/05/27 06:36:24;;;;;;;32.90;26.38;;;12.00;99.90;;;;;;5028087;28;20033;-60
2023/05/27 06:38:50;;;;;;;39.65;31.65;;;11.90;1.00;;;;;;5027341;28;20033;-60
2023/05/27 06:41:15;;;;;;;36.40;29.38;;;12.20;99.90;;;;;;5028290;28;20033;-60
2023/05/27 06:43:42;;;;;;;37.15;28.75;;;12.20;99.90;;;;;;5027956;28;20033;-60
2023/05/27 06:46:08;;;;;;;38.72;30.45;;;12.10;99.90;;;;;;5026140;28;20056;-60
2023/05/27 06:48:33;;;;;;;31.85;25.95;;;12.30;99.90;;;;;;5028281;28;20037;-61
2023/05/27 06:50:59;;;;;;;33.45;28.85;;;12.50;87.40;;;;;;5028472;28;20033;-61
2023/05/27 06:53:25;;;;;;;37.17;26.38;;;12.60;1.00;;;;;;5029684;28;20034;-60
2023/05/27 06:55:51;;;;;;;31.08;22.73;;;12.90;99.90;;;;;;5028399;28;20554;-60
2023/05/27 06:58:16;;;;;;;33.08;24.27;;;12.90;1.00;;;;;;5029883;28;20064;-60
2023/05/27 07:00:42;;;;;;;27.77;22.05;;;13.00;99.90;;;;;;5027956;28;20067;-60
2023/05/27 07:03:07;;;;;;;24.25;20.00;;;13.20;1.00;;;;;;5028735;28;20041;-60
2023/05/27 07:05:33;;;;;;;26.40;22.33;;;13.20;63.20;;;;;;5029855;28;20065;-61
2023/05/27 07:07:58;;;;;;;31.30;24.35;;;13.30;1.00;;;;;;5028958;28;20045;-60
2023/05/27 07:10:24;;;;;;;30.85;24.45;;;13.30;99.90;;;;;;5030492;28;20037;-60
2023/05/27 07:12:50;;;;;;;30.60;23.67;;;13.50;99.90;;;;;;5029977;28;20514;-60
2023/05/27 07:15:15;;;;;;;27.65;24.13;;;13.70;1.00;;;;;;5024849;28;20056;-60
2023/05/27 07:17:41;;;;;;;31.88;24.95;;;13.80;99.90;;;;;;5027747;28;20040;-61
2023/05/27 07:20:07;;;;;;;29.55;23.85;;;13.80;99.90;;;;;;5026296;28;20049;-60
2023/05/27 07:22:32;;;;;;;30.13;24.60;;;14.00;99.90;;;;;;5029743;28;20111;-61
2023/05/27 07:24:58;;;;;;;34.08;25.90;;;14.20;99.90;;;;;;5028433;28;20057;-61
2023/05/27 07:27:23;;;;;;;35.75;27.92;;;14.40;28.10;;;;;;5029167;28;20041;-61
2023/05/27 07:29:49;;;;;;;36.85;25.77;;;14.40;16.40;;;;;;5029713;28;20084;-60
2023/05/27 07:32:15;;;;;;;30.70;27.38;;;14.60;1.00;;;;;;5025940;28;20116;-61
2023/05/27 07:34:40;;;;;;;29.20;25.92;;;14.40;1.00;;;;;;5026322;28;20438;-61
2023/05/27 07:37:06;;;;;;;37.83;30.05;;;14.40;99.90;;;;;;5029176;28;20487;-61
2023/05/27 07:39:31;;;;;;;34.33;29.30;;;14.20;99.90;;;;;;5028974;28;20033;-60
2023/05/27 07:41:57;;;;;;;35.40;27.38;;;14.20;99.90;;;;;;5029223;28;20139;-61
2023/05/27 07:44:23;;;;;;;32.25;26.65;;;14.40;99.90;;;;;;5028670;28;20121;-60
2023/05/27 07:46:48;;;;;;;32.33;25.60;;;14.50;99.90;;;;;;5024769;28;20492;-60
2023/05/27 07:49:14;;;;;;;31.02;26.23;;;14.60;99.90;;;;;;5024043;28;20049;-61
2023/05/27 07:51:40;;;;;;;31.70;25.70;;;14.70;99.90;;;;;;5029000;28;20077;-61
2023/05/27 07:54:06;;;;;;;32.83;25.75;;;14.90;99.90;;;;;;5029097;28;20088;-61
2023/05/27 07:56:31;;;;;;;30.90;25.95;;;15.10;17.70;;;;;;5026659;28;20041;-61
2023/05/27 07:58:57;;;;;;;29.73;25.40;;;15.00;1.00;;;;;;5011158;28;20109;-61
2023/05/27 08:01:24;;;;;;;28.90;23.63;;;15.10;1.00;;;;;;5028878;28;20045;-61
2023/05/27 08:03:50;;;;;;;30.98;24.10;;;15.30;1.00;;;;;;5026963;28;20095;-61
2023/05/27 08:06:17;;;;;;;24.08;19.23;;;15.20;1.00;;;;;;5026121;28;20038;-61
2023/05/27 08:08:44;;;;;;;28.27;20.40;;;15.50;99.90;;;;;;5027403;28;20068;-61
2023/05/27 08:11:09;;;;;;;29.83;21.05;;;15.60;99.90;;;;;;5027203;28;20040;-61
2023/05/27 08:13:35;;;;;;;29.67;21.05;;;15.60;99.90;;;;;;5019918;28;20054;-60
2023/05/27 08:16:00;;;;;;;26.45;21.55;;;16.00;99.90;;;;;;5027539;28;20040;-60
2023/05/27 08:18:26;;;;;;;23.50;19.90;;;16.30;99.90;;;;;;5028238;28;20071;-60
2023/05/27 08:20:51;;;;;;;27.50;21.17;;;16.40;99.90;;;;;;5027898;28;20052;-60
2023/05/27 08:23:18;;;;;;;21.85;14.98;;;16.60;99.90;;;;;;5028542;28;20663;-61
2023/05/27 08:25:43;;;;;;;23.38;13.95;;;16.80;99.90;;;;;;5025917;28;20044;-61
2023/05/27 08:28:09;;;;;;;23.83;15.15;;;16.90;99.90;;;;;;5020229;28;20041;-61
2023/05/27 08:30:35;;;;;;;21.48;10.35;;;17.00;99.90;;;;;;5027394;28;20044;-61
2023/05/27 08:33:00;;;;;;;23.48;14.48;;;17.10;97.00;;;;;;5026740;28;20037;-61
2023/05/27 08:35:26;;;;;;;22.88;15.40;;;17.30;67.00;;;;;;5028480;28;20344;-61
2023/05/27 08:37:52;;;;;;;24.00;14.15;;;17.10;32.60;;;;;;5021174;28;20073;-61
2023/05/27 08:40:19;;;;;;;25.23;13.70;;;17.20;24.20;;;;;;5028776;28;20056;-61
2023/05/27 08:42:47;;;;;;;24.52;10.07;;;17.10;20.20;;;;;;5029057;28;20099;-61
2023/05/27 08:45:13;;;;;;;20.25;9.20;;;17.20;1.00;;;;;;5027416;28;20077;-61
2023/05/27 08:47:39;;;;;;;18.08;8.50;;;17.30;1.00;;;;;;5029387;28;20076;-61
2023/05/27 08:50:07;;;;;;;20.40;7.22;;;17.50;1.00;;;;;;5032613;28;20065;-61
2023/05/27 08:52:33;;;;;;;15.73;5.65;;;17.60;1.00;;;;;;5032471;28;20041;-61
2023/05/27 08:55:01;;;;;;;17.30;5.88;;;17.60;1.00;;;;;;5032161;28;20037;-61
2023/05/27 08:57:31;;;;;;;19.98;6.00;;;17.90;1.00;;;;;;5030696;28;20048;-60
2023/05/27 08:59:57;;;;;;;14.77;4.75;;;18.00;1.00;;;;;;5026236;28;20064;-61
2023/05/27 09:02:23;;;;;;;20.08;6.65;;;18.20;1.00;;;;;;5029464;28;20489;-61
2023/05/27 09:04:50;;;;;;;21.20;6.20;;;17.70;1.00;;;;;;5029772;28;20041;-61
2023/05/27 09:07:16;;;;;;;22.75;6.75;;;17.80;1.00;;;;;;5026726;28;20041;-61
2023/05/27 09:09:42;;;;;;;17.95;5.55;;;17.90;1.00;;;;;;5032360;28;20529;-61
2023/05/27 09:12:10;;;;;;;19.25;5.82;;;18.30;1.00;;;;;;5028524;28;20042;-61
2023/05/27 09:14:42;;;;;;;18.48;6.00;;;18.20;1.00;;;;;;5026481;28;20522;-61
2023/05/27 09:17:08;;;;;;;17.52;5.82;;;18.30;1.00;;;;;;5023520;28;20068;-60
2023/05/27 09:19:34;;;;;;;17.88;5.57;;;18.60;1.00;;;;;;5031071;28;20095;-60
2023/05/27 09:22:00;;;;;;;22.10;5.85;;;18.70;1.00;;;;;;5028665;28;20041;-60
2023/05/27 09:24:26;;;;;;;18.40;6.03;;;19.00;1.00;;;;;;5025227;28;20076;-59
2023/05/27 09:26:54;;;;;;;18.65;6.22;;;19.40;1.00;;;;;;5030108;28;20482;-60
2023/05/27 09:29:19;;;;;;;15.43;5.05;;;19.50;99.90;;;;;;5028991;28;20041;-60
2023/05/27 09:31:45;;;;;;;27.27;7.40;;;19.50;99.90;;;;;;5028638;28;20483;-63
2023/05/27 09:34:12;;;;;;;14.85;6.10;;;19.90;99.90;;;;;;5031859;28;20041;-60
2023/05/27 09:36:46;;;;;;;16.17;6.05;;;19.70;99.90;;;;;;5029722;28;20039;-60
2023/05/27 09:39:13;;;;;;;19.92;5.88;;;19.50;99.90;;;;;;5032188;28;20498;-60
2023/05/27 09:41:40;;;;;;;17.92;5.65;;;19.10;99.90;;;;;;5031425;28;20045;-61
2023/05/27 09:44:06;;;;;;;17.88;6.72;;;19.00;99.90;;;;;;5023803;28;20500;-60
2023/05/27 09:46:35;;;;;;;20.13;6.07;;;19.10;99.90;;;;;;5026516;28;20069;-60
2023/05/27 09:49:03;;;;;;;16.65;6.38;;;18.70;99.90;;;;;;5029461;28;20112;-60
2023/05/27 09:51:29;;;;;;;17.40;5.78;;;18.60;99.90;;;;;;5028923;28;20044;-60
2023/05/27 09:53:58;;;;;;;15.93;6.15;;;18.50;99.90;;;;;;5031990;28;20551;-60
2023/05/27 09:56:26;;;;;;;24.27;6.07;;;18.60;99.90;;;;;;5031078;28;20037;-60
2023/05/27 09:58:56;;;;;;;12.90;5.65;;;18.90;99.90;;;;;;5031697;28;20572;-59
2023/05/27 10:01:25;;;;;;;17.83;6.05;;;18.80;99.90;;;;;;5025709;28;20053;-59
2023/05/27 10:03:51;;;;;;;21.73;6.20;;;18.60;99.90;;;;;;5031492;28;20499;-60
2023/05/27 10:06:18;;;;;;;17.63;6.13;;;18.60;99.90;;;;;;5031543;28;20040;-59
2023/05/27 10:08:44;;;;;;;22.35;6.38;;;18.60;99.90;;;;;;5030576;28;20052;-60
2023/05/27 10:11:10;;;;;;;23.30;6.63;;;18.70;99.90;;;;;;5029970;28;20026;-60
2023/05/27 10:13:36;;;;;;;18.77;6.07;;;18.90;99.90;;;;;;5027295;28;20159;-65
2023/05/27 10:16:02;;;;;;;16.30;6.45;;;18.60;99.90;;;;;;5027850;28;20057;-66
2023/05/27 10:18:29;;;;;;;17.50;6.43;;;18.40;99.90;;;;;;5029749;28;20048;-66
2023/05/27 10:20:57;;;;;;;18.02;6.22;;;18.50;99.90;;;;;;5030019;28;20033;-66
2023/05/27 10:23:31;;;;;;;15.15;5.82;;;18.50;99.90;;;;;;5031156;28;20037;-67
2023/05/27 10:26:01;;;;;;;17.25;6.45;;;18.70;99.90;;;;;;5030825;28;20042;-67
2023/05/27 10:28:41;;;;;;;15.57;6.35;;;18.70;99.90;;;;;;5022217;28;20042;-68
2023/05/27 10:31:08;;;;;;;17.23;6.25;;;18.70;99.90;;;;;;5028695;28;20041;-68
2023/05/27 10:33:45;;;;;;;18.85;6.30;;;18.80;99.90;;;;;;5029971;28;20105;-68
2023/05/27 10:36:16;;;;;;;16.05;6.28;;;18.90;99.90;;;;;;5028430;28;20499;-68
2023/05/27 10:38:43;;;;;;;16.58;6.45;;;19.00;99.90;;;;;;5026751;28;20107;-69
2023/05/27 10:41:09;;;;;;;19.23;6.35;;;18.90;99.90;;;;;;5030460;28;20121;-68
2023/05/27 10:43:36;;;;;;;15.05;6.13;;;18.80;99.90;;;;;;5030676;28;20025;-69
2023/05/27 10:46:03;;;;;;;15.77;6.10;;;18.70;99.90;;;;;;5030038;28;20077;-68
2023/05/27 10:48:30;;;;;;;19.75;6.25;;;18.90;99.90;;;;;;5030114;28;20051;-68
2023/05/27 10:50:58;;;;;;;14.35;5.95;;;18.80;99.90;;;;;;5029258;28;20073;-68
2023/05/27 10:53:27;;;;;;;17.77;5.88;;;18.80;99.90;;;;;;5030547;28;20075;-68
2023/05/27 10:55:52;;;;;;;14.75;5.82;;;18.80;99.90;;;;;;5026707;28;20041;-68
2023/05/27 10:58:19;;;;;;;16.17;5.85;;;18.70;99.90;;;;;;5025245;28;20026;-68
2023/05/27 11:00:50;;;;;;;15.15;6.00;;;18.70;99.90;;;;;;5028630;28;20049;-69
2023/05/27 11:03:23;;;;;;;18.27;6.45;;;18.70;99.90;;;;;;5029553;28;20033;-68
2023/05/27 11:05:58;;;;;;;18.55;6.75;;;18.60;99.90;;;;;;5029756;28;20102;-68
2023/05/27 11:08:24;;;;;;;16.70;6.07;;;18.70;99.90;;;;;;5028518;28;20056;-68
2023/05/27 11:10:50;;;;;;;14.82;6.05;;;18.70;99.90;;;;;;5027991;28;20055;-69
2023/05/27 11:13:16;;;;;;;16.30;6.63;;;18.60;99.90;;;;;;5028587;28;20041;-69
2023/05/27 11:15:41;;;;;;;17.40;6.32;;;18.60;99.90;;;;;;5029674;28;20041;-69
2023/05/27 11:18:08;;;;;;;18.50;6.10;;;18.60;99.90;;;;;;5024482;28;20029;-69
2023/05/27 11:20:37;;;;;;;20.50;5.97;;;18.70;99.90;;;;;;5027005;28;20068;-69
2023/05/27 11:23:03;;;;;;;16.20;6.47;;;18.90;99.90;;;;;;5025742;28;20037;-69
2023/05/27 11:25:29;;;;;;;17.10;5.68;;;18.60;99.90;;;;;;5029829;28;20033;-69
2023/05/27 11:27:55;;;;;;;18.60;5.68;;;18.60;99.90;;;;;;5029366;28;20095;-68
2023/05/27 11:30:25;;;;;;;22.08;6.05;;;18.60;99.90;;;;;;5026274;28;20049;-70
2023/05/27 11:32:50;;;;;;;18.95;5.88;;;18.70;99.90;;;;;;5025591;28;20385;-66
2023/05/27 11:35:17;;;;;;;20.88;6.05;;;19.30;99.90;;;;;;5029378;28;20041;-66
2023/05/27 11:37:49;;;;;;;18.30;6.32;;;19.00;99.90;;;;;;5028887;28;20103;-67
2023/05/27 11:40:15;;;;;;;18.88;6.88;;;18.80;99.90;;;;;;5026960;28;20503;-69
2023/05/27 11:42:46;;;;;;;21.50;6.85;;;18.80;99.90;;;;;;5024041;28;20219;-69
2023/05/27 11:45:16;;;;;;;17.88;6.60;;;18.80;99.90;;;;;;5029098;28;20072;-68
2023/05/27 11:47:42;;;;;;;17.27;6.50;;;18.80;99.90;;;;;;5026522;28;20415;-67
2023/05/27 11:50:08;;;;;;;17.02;6.50;;;18.80;99.90;;;;;;5027757;28;20120;-69
2023/05/27 11:52:34;;;;;;;13.52;5.93;;;18.70;99.90;;;;;;5023130;28;20442;-67
2023/05/27 11:55:00;;;;;;;15.40;6.88;;;18.80;99.90;;;;;;5019752;28;20037;-67
2023/05/27 11:57:26;;;;;;;14.77;6.28;;;19.20;99.90;;;;;;5027859;28;20033;-66
2023/05/27 11:59:51;;;;;;;17.27;7.07;;;18.80;99.90;;;;;;5026684;28;20097;-71
2023/05/27 12:02:17;;;;;;;14.75;6.57;;;18.70;99.90;;;;;;5024206;28;20030;-68
2023/05/27 12:04:42;;;;;;;16.58;6.70;;;18.60;99.90;;;;;;5026890;28;20025;-69
2023/05/27 12:07:09;;;;;;;17.77;6.68;;;18.70;99.90;;;;;;5030387;28;20037;-74
2023/05/27 12:09:35;;;;;;;14.00;6.68;;;18.70;99.90;;;;;;5030685;28;20038;-70
2023/05/27 12:12:01;;;;;;;20.02;6.90;;;18.80;99.90;;;;;;5029446;28;20071;-70
2023/05/27 12:14:27;;;;;;;15.18;6.85;;;18.70;99.90;;;;;;5022073;28;20085;-73
2023/05/27 12:16:52;;;;;;;18.80;7.65;;;18.70;99.90;;;;;;5026365;28;20081;-69
2023/05/27 12:19:18;;;;;;;15.15;6.80;;;18.70;99.90;;;;;;5024366;28;20086;-67
2023/05/27 12:21:43;;;;;;;16.05;7.30;;;18.80;99.90;;;;;;5043522;28;20427;-66
2023/05/27 12:24:09;;;;;;;18.42;7.15;;;18.90;99.90;;;;;;5029395;28;20069;-67
2023/05/27 12:26:34;;;;;;;18.08;7.28;;;19.10;99.90;;;;;;5027505;28;20034;-67
2023/05/27 12:29:00;;;;;;;20.02;6.03;;;19.10;99.90;;;;;;5026744;28;20450;-67
2023/05/27 12:31:26;;;;;;;23.98;7.18;;;19.00;99.90;;;;;;5028877;28;20072;-67
2023/05/27 12:33:51;;;;;;;21.63;7.05;;;19.00;99.90;;;;;;5028694;28;20519;-66
2023/05/27 12:36:19;;;;;;;16.58;6.03;;;18.70;99.90;;;;;;5027170;28;20037;-66